createdAt,value
2022-12-04T00:01:12.817Z,15.90
2022-12-04T00:05:17.310Z,15.20
2022-12-04T00:09:20.318Z,15.25
2022-12-04T00:13:23.312Z,14.75
2022-12-04T00:17:26.253Z,15.48
2022-12-04T00:21:30.664Z,15.38
2022-12-04T00:25:39.307Z,14.52
2022-12-04T00:29:44.034Z,14.32
2022-12-04T00:33:47.184Z,13.30
2022-12-04T00:37:51.542Z,15.45
2022-12-04T00:41:54.517Z,14.82
2022-12-04T00:45:57.605Z,14.27
2022-12-04T00:50:00.868Z,14.10
2022-12-04T00:54:05.504Z,14.02
2022-12-04T00:58:08.682Z,14.55
2022-12-04T01:02:11.630Z,14.50
2022-12-04T01:06:23.284Z,15.18
2022-12-04T01:10:27.661Z,14.75
2022-12-04T01:14:30.753Z,14.43
2022-12-04T01:18:33.795Z,15.27
2022-12-04T01:22:36.776Z,16.17
2022-12-04T01:26:41.199Z,14.55
2022-12-04T01:30:44.175Z,15.65
2022-12-04T01:34:47.378Z,14.73
2022-12-04T01:38:50.531Z,14.73
2022-12-04T01:42:55.165Z,13.88
2022-12-04T01:46:59.377Z,14.85
2022-12-04T01:51:08.389Z,14.93
2022-12-04T01:55:11.367Z,15.25
2022-12-04T01:59:18.619Z,13.98
2022-12-04T02:03:22.068Z,15.02
2022-12-04T02:07:25.270Z,13.73
2022-12-04T02:11:37.504Z,13.70
2022-12-04T02:15:49.416Z,13.90
2022-12-04T02:20:05.509Z,14.32
2022-12-04T02:24:28.961Z,14.13
2022-12-04T02:28:42.669Z,15.15
2022-12-04T02:32:49.657Z,14.70
2022-12-04T02:36:56.710Z,14.60
2022-12-04T02:41:04.949Z,15.05
2022-12-04T02:45:13.088Z,14.38
2022-12-04T02:49:20.415Z,13.80
2022-12-04T02:53:27.536Z,13.93
2022-12-04T02:57:37.030Z,14.65
2022-12-04T03:01:44.981Z,14.48
2022-12-04T03:05:54.735Z,15.20
2022-12-04T03:10:04.127Z,14.63
2022-12-04T03:14:15.525Z,15.10
2022-12-04T03:18:23.685Z,14.45
2022-12-04T03:22:28.703Z,14.45
2022-12-04T03:26:37.613Z,14.85
2022-12-04T03:30:45.527Z,15.98
2022-12-04T03:34:55.597Z,15.57
2022-12-04T03:39:04.592Z,16.40
2022-12-04T03:43:12.907Z,16.55
2022-12-04T03:47:21.621Z,15.48
2022-12-04T03:51:34.379Z,15.10
2022-12-04T03:55:42.625Z,17.02
2022-12-04T03:59:55.411Z,15.50
2022-12-04T04:04:01.726Z,14.63
2022-12-04T04:08:27.887Z,15.23
2022-12-04T04:12:36.662Z,15.30
2022-12-04T04:17:01.696Z,13.98
2022-12-04T04:21:22.543Z,15.57
2022-12-04T04:25:29.623Z,14.98
2022-12-04T04:29:32.877Z,15.07
2022-12-04T04:33:40.884Z,15.52
2022-12-04T04:37:54.864Z,14.63
2022-12-04T04:42:04.379Z,14.60
2022-12-04T04:46:12.498Z,14.55
2022-12-04T04:50:18.110Z,14.70
2022-12-04T04:54:22.166Z,13.90
2022-12-04T04:58:26.577Z,15.43
2022-12-04T05:02:29.986Z,13.93
2022-12-04T05:06:33.101Z,14.55
2022-12-04T05:10:36.101Z,13.45
2022-12-04T05:14:40.470Z,13.82
2022-12-04T05:19:04.390Z,14.23
2022-12-04T05:23:08.309Z,14.00
2022-12-04T05:27:11.397Z,13.95
2022-12-04T05:31:15.848Z,13.82
2022-12-04T05:35:18.971Z,14.10
2022-12-04T05:39:22.472Z,14.07
2022-12-04T05:43:25.475Z,14.10
2022-12-04T05:47:29.862Z,14.18
2022-12-04T05:51:32.824Z,12.55
2022-12-04T05:55:36.174Z,13.77
2022-12-04T05:59:39.368Z,14.82
2022-12-04T06:03:43.998Z,14.38
2022-12-04T06:07:47.178Z,13.40
2022-12-04T06:11:50.379Z,14.05
2022-12-04T06:15:53.472Z,13.35
2022-12-04T06:19:58.285Z,13.50
2022-12-04T06:24:02.133Z,14.15
2022-12-04T06:28:05.163Z,13.38
2022-12-04T06:32:08.262Z,13.95
2022-12-04T06:36:14.441Z,14.07
2022-12-04T06:40:17.484Z,13.48
2022-12-04T06:44:20.518Z,14.70
2022-12-04T06:48:23.605Z,13.90
2022-12-04T06:52:27.980Z,13.25
2022-12-04T06:56:33.595Z,12.77
2022-12-04T07:00:37.039Z,13.35
2022-12-04T07:04:40.269Z,13.57
2022-12-04T07:08:46.154Z,12.93
2022-12-04T07:12:49.117Z,13.38
2022-12-04T07:16:52.136Z,12.93
2022-12-04T07:20:55.176Z,12.98
2022-12-04T07:24:59.535Z,13.30
2022-12-04T07:29:07.662Z,13.68
2022-12-04T07:33:20.118Z,13.25
2022-12-04T07:37:27.800Z,12.15
2022-12-04T07:41:32.079Z,13.52
2022-12-04T07:45:46.574Z,13.18
2022-12-04T07:49:49.627Z,13.38
2022-12-04T07:53:54.067Z,12.15
2022-12-04T07:57:58.418Z,13.55
2022-12-04T08:02:01.461Z,12.40
2022-12-04T08:06:05.880Z,11.90
2022-12-04T08:10:10.085Z,11.95
2022-12-04T08:14:14.904Z,11.20
2022-12-04T08:18:18.025Z,11.63
2022-12-04T08:22:25.064Z,11.82
2022-12-04T08:26:30.536Z,11.45
2022-12-04T08:30:36.041Z,11.00
2022-12-04T08:34:39.081Z,11.32
2022-12-04T08:38:42.545Z,11.70
2022-12-04T08:42:45.507Z,10.48
2022-12-04T08:46:49.967Z,10.90
2022-12-04T08:50:53.379Z,10.23
2022-12-04T08:54:56.362Z,11.20
2022-12-04T08:59:01.239Z,10.80
2022-12-04T09:03:05.788Z,9.98
2022-12-04T09:07:08.764Z,11.18
2022-12-04T09:11:14.713Z,10.68
2022-12-04T09:15:18.420Z,10.23
2022-12-04T09:19:23.064Z,10.65
2022-12-04T09:23:26.830Z,11.27
2022-12-04T09:27:29.856Z,9.93
2022-12-04T09:31:34.038Z,9.70
2022-12-04T09:35:39.677Z,10.23
2022-12-04T09:39:42.669Z,10.68
2022-12-04T09:43:53.413Z,10.75
2022-12-04T09:47:59.521Z,10.85
2022-12-04T09:52:10.669Z,10.13
2022-12-04T09:56:19.913Z,9.77
2022-12-04T10:00:23.547Z,10.30
2022-12-04T10:04:26.821Z,10.55
2022-12-04T10:08:35.961Z,10.32
2022-12-04T10:12:51.450Z,10.10
2022-12-04T10:17:14.634Z,10.50
2022-12-04T10:21:33.858Z,9.77
2022-12-04T10:25:40.142Z,11.38
2022-12-04T10:29:44.801Z,10.55
2022-12-04T10:33:52.007Z,10.10
2022-12-04T10:37:58.755Z,9.93
2022-12-04T10:42:12.505Z,10.20
2022-12-04T10:46:17.815Z,10.77
2022-12-04T10:50:22.972Z,10.15
2022-12-04T10:54:32.737Z,10.02
2022-12-04T10:58:37.151Z,10.63
2022-12-04T11:02:40.832Z,10.38
2022-12-04T11:06:44.161Z,10.63
2022-12-04T11:10:47.201Z,11.23
2022-12-04T11:15:01.155Z,10.18
2022-12-04T11:19:04.622Z,11.00
2022-12-04T11:23:07.670Z,10.27
2022-12-04T11:27:20.866Z,9.60
2022-12-04T11:31:25.674Z,10.45
2022-12-04T11:35:30.965Z,9.77
2022-12-04T11:39:37.994Z,9.55
2022-12-04T11:43:51.404Z,10.02
2022-12-04T11:48:00.438Z,8.98
2022-12-04T11:52:23.580Z,9.70
2022-12-04T11:56:32.736Z,9.43
2022-12-04T12:00:40.635Z,10.38
2022-12-04T12:05:03.980Z,10.02
2022-12-04T12:09:23.662Z,9.55
2022-12-04T12:13:36.618Z,9.63
2022-12-04T12:17:47.198Z,9.55
2022-12-04T12:22:05.165Z,9.20
2022-12-04T12:26:12.284Z,9.90
2022-12-04T12:30:19.173Z,10.48
2022-12-04T12:34:36.235Z,9.30
2022-12-04T12:38:45.448Z,9.32
2022-12-04T12:42:58.202Z,8.88
2022-12-04T12:47:08.113Z,9.55
2022-12-04T12:51:30.034Z,8.20
2022-12-04T12:55:40.360Z,7.93
2022-12-04T12:59:49.354Z,8.15
2022-12-04T13:03:59.808Z,6.60
2022-12-04T13:08:15.947Z,7.53
2022-12-04T13:12:23.711Z,7.85
2022-12-04T13:16:31.196Z,7.25
2022-12-04T13:20:40.343Z,7.55
2022-12-04T13:24:55.341Z,6.53
2022-12-04T13:29:10.091Z,6.70
2022-12-04T13:34:04.463Z,6.68
2022-12-04T13:38:20.822Z,6.28
2022-12-04T13:42:27.052Z,6.25
2022-12-04T13:46:35.853Z,6.82
2022-12-04T13:50:41.557Z,6.45
2022-12-04T13:54:44.975Z,6.30
2022-12-04T13:58:47.961Z,6.50
2022-12-04T14:02:55.633Z,5.75
2022-12-04T14:07:01.639Z,6.40
2022-12-04T14:11:08.250Z,5.55
2022-12-04T14:15:23.319Z,5.97
2022-12-04T14:19:35.646Z,6.75
2022-12-04T14:23:41.303Z,6.13
2022-12-04T14:27:45.557Z,6.28
2022-12-04T14:31:48.531Z,5.97
2022-12-04T14:36:00.732Z,6.25
2022-12-04T14:40:07.305Z,6.63
2022-12-04T14:44:25.368Z,6.10
2022-12-04T14:48:41.842Z,6.80
2022-12-04T14:52:54.193Z,6.78
2022-12-04T14:57:12.901Z,7.20
2022-12-04T15:01:28.656Z,6.68
2022-12-04T15:05:34.249Z,7.10
2022-12-04T15:09:56.292Z,7.18
2022-12-04T15:14:12.714Z,7.10
2022-12-04T15:18:17.928Z,6.05
2022-12-04T15:22:24.815Z,7.60
2022-12-04T15:26:29.579Z,7.20
2022-12-04T15:30:35.598Z,7.40
2022-12-04T15:34:43.049Z,7.20
2022-12-04T15:38:47.968Z,7.78
2022-12-04T15:42:53.114Z,7.60
2022-12-04T15:46:57.782Z,7.82
2022-12-04T15:51:05.058Z,8.10
2022-12-04T15:55:10.131Z,7.75
2022-12-04T15:59:19.145Z,8.02
2022-12-04T16:03:26.575Z,8.18
2022-12-04T16:07:30.906Z,8.90
2022-12-04T16:11:37.443Z,8.63
2022-12-04T16:15:43.956Z,8.18
2022-12-04T16:19:47.259Z,8.55
2022-12-04T16:23:50.969Z,8.93
2022-12-04T16:27:53.949Z,8.57
2022-12-04T16:32:02.893Z,9.18
2022-12-04T16:36:07.288Z,9.00
2022-12-04T16:40:12.008Z,9.73
2022-12-04T16:44:16.809Z,10.95
2022-12-04T16:48:21.466Z,10.30
2022-12-04T16:52:24.524Z,10.60
2022-12-04T16:56:27.517Z,9.63
2022-12-04T17:00:30.620Z,9.43
2022-12-04T17:04:35.076Z,9.70
2022-12-04T17:08:38.134Z,9.68
2022-12-04T17:12:41.414Z,10.00
2022-12-04T17:16:46.698Z,9.90
2022-12-04T17:20:51.132Z,9.95
2022-12-04T17:24:56.217Z,10.88
2022-12-04T17:28:59.486Z,10.10
2022-12-04T17:33:02.696Z,10.90
2022-12-04T17:37:07.077Z,10.27
2022-12-04T17:41:13.685Z,11.20
2022-12-04T17:45:17.096Z,10.75
2022-12-04T17:49:20.378Z,9.90
2022-12-04T17:53:24.815Z,10.95
2022-12-04T17:57:28.767Z,11.27
2022-12-04T18:01:32.486Z,10.15
2022-12-04T18:05:35.752Z,9.93
2022-12-04T18:09:40.394Z,10.73
2022-12-04T18:13:43.751Z,10.68
2022-12-04T18:17:46.796Z,10.25
2022-12-04T18:21:50.178Z,10.48
2022-12-04T18:25:57.423Z,9.77
2022-12-04T18:30:01.578Z,9.75
2022-12-04T18:34:06.501Z,10.07
2022-12-04T18:38:13.767Z,10.50
2022-12-04T18:42:18.247Z,9.35
2022-12-04T18:46:22.401Z,9.48
2022-12-04T18:50:25.443Z,8.88
2022-12-04T18:54:28.496Z,9.80
2022-12-04T18:58:32.915Z,9.25
2022-12-04T19:02:36.107Z,10.20
2022-12-04T19:06:40.820Z,9.68
2022-12-04T19:10:43.878Z,9.55
2022-12-04T19:14:48.267Z,10.27
2022-12-04T19:18:51.371Z,9.77
2022-12-04T19:22:54.931Z,10.00
2022-12-04T19:26:57.925Z,9.85
2022-12-04T19:31:02.257Z,9.68
2022-12-04T19:35:05.779Z,9.40
2022-12-04T19:39:09.705Z,9.75
2022-12-04T19:43:13.944Z,9.75
2022-12-04T19:47:19.360Z,10.70
2022-12-04T19:51:22.919Z,10.02
2022-12-04T19:55:25.905Z,10.27
2022-12-04T19:59:34.613Z,10.25
2022-12-04T20:03:41.646Z,9.32
2022-12-04T20:07:44.658Z,9.50
2022-12-04T20:11:48.029Z,9.32
2022-12-04T20:15:51.337Z,9.40
2022-12-04T20:19:56.380Z,10.13
2022-12-04T20:24:02.216Z,9.93
2022-12-04T20:28:08.990Z,9.70
2022-12-04T20:32:14.398Z,9.52
2022-12-04T20:36:21.298Z,10.60
2022-12-04T20:40:24.623Z,9.85
2022-12-04T20:44:27.821Z,10.90
2022-12-04T20:48:30.729Z,10.80
2022-12-04T20:52:35.241Z,10.50
2022-12-04T20:56:39.459Z,10.02
2022-12-04T21:00:42.559Z,9.63
2022-12-04T21:04:45.675Z,9.68
2022-12-04T21:08:55.802Z,9.43
2022-12-04T21:13:16.729Z,10.68
2022-12-04T21:17:21.193Z,9.68
2022-12-04T21:21:24.377Z,9.27
2022-12-04T21:25:28.687Z,8.98
2022-12-04T21:29:33.174Z,9.10
2022-12-04T21:33:40.948Z,8.65
2022-12-04T21:37:44.355Z,8.48
2022-12-04T21:42:06.655Z,8.85
2022-12-04T21:46:10.323Z,9.15
2022-12-04T21:50:13.294Z,7.97
2022-12-04T21:54:16.194Z,7.65
2022-12-04T21:58:21.399Z,7.95
2022-12-04T22:02:25.690Z,8.30
2022-12-04T22:06:28.853Z,7.70
2022-12-04T22:10:31.787Z,7.25
2022-12-04T22:14:36.257Z,8.02
2022-12-04T22:18:39.841Z,8.10
2022-12-04T22:22:42.810Z,7.75
2022-12-04T22:26:45.745Z,7.47
2022-12-04T22:30:50.132Z,8.23
2022-12-04T22:34:53.093Z,8.13
2022-12-04T22:39:09.510Z,7.38
2022-12-04T22:43:13.288Z,7.35
2022-12-04T22:47:17.637Z,7.53
2022-12-04T22:51:22.182Z,7.40
2022-12-04T22:55:25.435Z,7.88
2022-12-04T22:59:28.586Z,7.20
2022-12-04T23:03:33.009Z,7.93
2022-12-04T23:07:36.858Z,8.10
2022-12-04T23:11:40.915Z,8.48
2022-12-04T23:15:43.902Z,7.93
2022-12-04T23:19:48.389Z,8.10
2022-12-04T23:23:53.830Z,8.00
2022-12-04T23:27:56.714Z,8.15
2022-12-04T23:31:59.698Z,8.23
2022-12-04T23:36:06.219Z,7.93
2022-12-04T23:40:10.148Z,7.68
2022-12-04T23:44:13.055Z,7.63
2022-12-04T23:48:15.950Z,8.23
2022-12-04T23:52:20.402Z,8.07
2022-12-04T23:56:25.045Z,7.32
